createdAt,value
2018-12-18T00:00:50.653Z,3.97
2018-12-18T00:03:19.762Z,4.10
2018-12-18T00:05:48.863Z,3.33
2018-12-18T00:08:17.988Z,3.13
2018-12-18T00:10:52.144Z,3.43
2018-12-18T00:13:21.678Z,3.63
2018-12-18T00:15:50.761Z,3.73
2018-12-18T00:18:19.890Z,3.60
2018-12-18T00:20:49.302Z,3.53
2018-12-18T00:23:18.476Z,3.17
2018-12-18T00:25:47.575Z,3.30
2018-12-18T00:28:16.703Z,3.23
2018-12-18T00:30:45.798Z,3.40
2018-12-18T00:33:14.878Z,3.37
2018-12-18T00:35:44.477Z,3.80
2018-12-18T00:38:13.526Z,2.93
2018-12-18T00:40:42.620Z,3.60
2018-12-18T00:43:11.756Z,3.80
2018-12-18T00:45:41.104Z,3.27
2018-12-18T00:48:10.178Z,3.17
2018-12-18T00:50:39.670Z,3.10
2018-12-18T00:53:08.908Z,2.93
2018-12-18T00:55:38.020Z,3.03
2018-12-18T00:58:07.594Z,3.37
2018-12-18T01:00:36.661Z,2.70
2018-12-18T01:03:05.972Z,3.17
2018-12-18T01:05:35.489Z,3.20
2018-12-18T01:08:04.816Z,3.20
2018-12-18T01:10:33.931Z,3.37
2018-12-18T01:13:03.220Z,3.50
2018-12-18T01:15:32.294Z,3.53
2018-12-18T01:18:01.442Z,4.20
2018-12-18T01:20:30.589Z,3.80
2018-12-18T01:22:59.648Z,3.40
2018-12-18T01:25:29.775Z,3.83
2018-12-18T01:27:58.909Z,4.30
2018-12-18T01:30:28.011Z,3.97
2018-12-18T01:32:57.088Z,3.60
2018-12-18T01:35:26.293Z,4.43
2018-12-18T01:37:55.350Z,3.63
2018-12-18T01:40:24.451Z,4.37
2018-12-18T01:42:53.551Z,3.30
2018-12-18T01:45:22.613Z,3.60
2018-12-18T01:47:51.734Z,3.50
2018-12-18T01:50:20.865Z,3.77
2018-12-18T01:52:49.970Z,3.77
2018-12-18T01:55:19.083Z,3.10
2018-12-18T01:57:48.201Z,3.53
2018-12-18T02:00:17.417Z,3.17
2018-12-18T02:02:46.503Z,3.60
2018-12-18T02:05:15.609Z,3.47
2018-12-18T02:07:44.652Z,3.20
2018-12-18T02:10:13.765Z,3.27
2018-12-18T02:12:42.957Z,3.10
2018-12-18T02:15:12.048Z,3.23
2018-12-18T02:17:41.228Z,3.50
2018-12-18T02:20:10.356Z,3.00
2018-12-18T02:22:39.431Z,3.00
2018-12-18T02:25:08.569Z,2.80
2018-12-18T02:27:37.739Z,2.90
2018-12-18T02:30:07.471Z,3.20
2018-12-18T02:32:36.523Z,3.20
2018-12-18T02:35:06.656Z,3.60
2018-12-18T02:37:35.754Z,3.30
2018-12-18T02:40:05.419Z,2.83
2018-12-18T02:42:34.621Z,3.50
2018-12-18T02:45:03.894Z,2.80
2018-12-18T02:47:33.006Z,3.63
2018-12-18T02:50:02.473Z,3.00
2018-12-18T02:52:31.555Z,3.07
2018-12-18T02:55:00.607Z,3.60
2018-12-18T02:57:29.729Z,3.30
2018-12-18T03:00:05.017Z,3.60
2018-12-18T03:02:34.120Z,3.53
2018-12-18T03:05:03.398Z,3.03
2018-12-18T03:07:32.518Z,3.50
2018-12-18T03:10:01.713Z,4.03
2018-12-18T03:12:30.856Z,3.80
2018-12-18T03:14:59.934Z,3.33
2018-12-18T03:17:29.067Z,3.30
2018-12-18T03:19:58.123Z,2.63
2018-12-18T03:22:27.228Z,3.67
2018-12-18T03:24:56.375Z,3.13
2018-12-18T03:27:25.518Z,3.50
2018-12-18T03:29:54.646Z,3.20
2018-12-18T03:32:27.727Z,3.80
2018-12-18T03:34:56.783Z,3.90
2018-12-18T03:37:25.862Z,3.73
2018-12-18T03:39:55.306Z,4.10
2018-12-18T03:42:24.438Z,4.33
2018-12-18T03:44:53.529Z,3.80
2018-12-18T03:47:22.650Z,3.97
2018-12-18T03:49:51.791Z,4.73
2018-12-18T03:52:20.879Z,5.03
2018-12-18T03:54:50.030Z,5.37
2018-12-18T03:57:19.061Z,4.87
2018-12-18T03:59:48.095Z,5.37
2018-12-18T04:02:17.164Z,4.97
2018-12-18T04:04:46.234Z,4.57
2018-12-18T04:07:15.302Z,4.50
2018-12-18T04:09:44.408Z,4.53
2018-12-18T04:12:18.610Z,4.97
2018-12-18T04:14:47.817Z,8.20
2018-12-18T04:17:16.873Z,9.77
2018-12-18T04:19:45.900Z,7.23
2018-12-18T04:22:15.499Z,7.00
2018-12-18T04:24:44.608Z,7.73
2018-12-18T04:27:13.707Z,7.67
2018-12-18T04:29:43.111Z,7.27
2018-12-18T04:32:12.205Z,5.03
2018-12-18T04:34:43.168Z,5.80
2018-12-18T04:37:12.577Z,6.60
2018-12-18T04:39:41.713Z,6.10
2018-12-18T04:42:10.801Z,7.17
2018-12-18T04:44:39.924Z,6.27
2018-12-18T04:47:09.010Z,6.50
2018-12-18T04:49:38.189Z,7.90
2018-12-18T04:52:07.267Z,8.33
2018-12-18T04:54:36.381Z,6.80
2018-12-18T04:57:05.519Z,7.13
2018-12-18T04:59:35.010Z,8.20
2018-12-18T05:02:04.333Z,7.10
2018-12-18T05:04:33.436Z,5.83
2018-12-18T05:07:02.597Z,5.90
2018-12-18T05:09:31.663Z,5.80
2018-12-18T05:12:00.771Z,6.20
2018-12-18T05:14:29.923Z,5.20
2018-12-18T05:16:59.039Z,4.93
2018-12-18T05:19:28.089Z,5.07
2018-12-18T05:21:57.257Z,5.20
2018-12-18T05:24:26.293Z,6.60
2018-12-18T05:26:55.378Z,4.30
2018-12-18T05:29:24.518Z,4.50
2018-12-18T05:31:53.632Z,5.20
2018-12-18T05:34:22.735Z,4.50
2018-12-18T05:36:51.883Z,4.73
2018-12-18T05:39:20.931Z,4.17
2018-12-18T05:41:50.054Z,4.30
2018-12-18T05:44:19.177Z,4.37
2018-12-18T05:46:48.260Z,4.93
2018-12-18T05:49:17.357Z,4.60
2018-12-18T05:51:46.622Z,4.77
2018-12-18T05:54:15.672Z,4.93
2018-12-18T05:56:44.718Z,4.17
2018-12-18T05:59:13.810Z,4.70
2018-12-18T06:01:42.936Z,4.90
2018-12-18T06:04:11.984Z,4.60
2018-12-18T06:06:41.248Z,4.87
2018-12-18T06:09:10.322Z,4.90
2018-12-18T06:11:39.387Z,4.30
2018-12-18T06:14:08.584Z,3.97
2018-12-18T06:16:37.673Z,4.27
2018-12-18T06:19:06.777Z,4.00
2018-12-18T06:21:35.896Z,7.93
2018-12-18T06:24:05.026Z,7.00
2018-12-18T06:26:34.183Z,8.50
2018-12-18T06:29:03.370Z,7.27
2018-12-18T06:31:32.420Z,6.33
2018-12-18T06:34:01.603Z,6.33
2018-12-18T06:36:31.039Z,6.00
2018-12-18T06:39:00.137Z,5.70
2018-12-18T06:41:29.186Z,6.03
2018-12-18T06:43:58.275Z,6.83
2018-12-18T06:46:27.364Z,6.73
2018-12-18T06:48:56.441Z,4.90
2018-12-18T06:51:25.564Z,4.40
2018-12-18T06:53:54.643Z,5.00
2018-12-18T06:56:23.663Z,6.00
2018-12-18T06:58:52.776Z,4.20
2018-12-18T07:01:21.829Z,3.27
2018-12-18T07:03:50.924Z,4.50
2018-12-18T07:06:20.066Z,4.43
2018-12-18T07:08:49.136Z,3.60
2018-12-18T07:11:18.259Z,3.93
2018-12-18T07:13:47.423Z,4.27
2018-12-18T07:16:16.563Z,3.70
2018-12-18T07:18:45.718Z,3.83
2018-12-18T07:21:14.863Z,3.80
2018-12-18T07:23:43.935Z,3.10
2018-12-18T07:26:12.996Z,3.53
2018-12-18T07:28:42.143Z,3.27
2018-12-18T07:31:11.154Z,3.60
2018-12-18T07:33:40.215Z,3.23
2018-12-18T07:36:09.320Z,2.63
2018-12-18T07:38:38.454Z,2.90
2018-12-18T07:41:07.517Z,3.07
2018-12-18T07:43:36.596Z,2.70
2018-12-18T07:46:05.669Z,3.20
2018-12-18T07:48:35.026Z,3.00
2018-12-18T07:51:04.208Z,3.50
2018-12-18T07:53:33.290Z,2.73
2018-12-18T07:56:02.415Z,2.63
2018-12-18T07:58:31.487Z,2.80
2018-12-18T08:01:00.613Z,3.50
2018-12-18T08:03:29.750Z,3.00
2018-12-18T08:05:59.156Z,2.57
2018-12-18T08:08:28.244Z,3.30
2018-12-18T08:10:57.317Z,2.93
2018-12-18T08:13:26.774Z,3.27
2018-12-18T08:15:55.891Z,3.07
2018-12-18T08:18:24.985Z,2.80
2018-12-18T08:20:54.178Z,2.77
2018-12-18T08:23:23.269Z,2.50
2018-12-18T08:25:52.384Z,2.57
2018-12-18T08:28:21.497Z,2.87
2018-12-18T08:30:50.621Z,2.60
2018-12-18T08:33:22.564Z,2.33
2018-12-18T08:35:51.672Z,2.00
2018-12-18T08:38:20.768Z,2.53
2018-12-18T08:40:49.866Z,2.40
2018-12-18T08:43:18.960Z,2.20
2018-12-18T08:45:47.997Z,2.60
2018-12-18T08:48:17.054Z,2.73
2018-12-18T08:50:46.186Z,2.53
2018-12-18T08:53:15.295Z,2.57
2018-12-18T08:55:44.326Z,2.30
2018-12-18T08:58:13.454Z,2.90
2018-12-18T09:00:42.500Z,2.63
2018-12-18T09:03:11.565Z,2.53
2018-12-18T09:05:43.325Z,2.00
2018-12-18T09:08:11.848Z,2.40
2018-12-18T09:10:41.027Z,2.07
2018-12-18T09:13:10.302Z,2.07
2018-12-18T09:15:44.739Z,2.33
2018-12-18T09:18:13.837Z,2.67
2018-12-18T09:20:43.063Z,2.33
2018-12-18T09:23:12.187Z,2.37
2018-12-18T09:25:41.228Z,2.40
2018-12-18T09:28:10.354Z,2.20
2018-12-18T09:30:42.404Z,2.53
2018-12-18T09:33:10.778Z,2.40
2018-12-18T09:35:40.996Z,2.03
2018-12-18T09:38:15.403Z,1.93
2018-12-18T09:40:49.679Z,2.23
2018-12-18T09:43:24.004Z,2.43
2018-12-18T09:45:53.136Z,1.87
2018-12-18T09:48:22.208Z,2.47
2018-12-18T09:50:51.269Z,2.40
2018-12-18T09:53:20.547Z,2.60
2018-12-18T09:55:49.628Z,2.50
2018-12-18T09:58:18.692Z,2.20
2018-12-18T10:00:47.855Z,2.57
2018-12-18T10:03:16.973Z,3.80
2018-12-18T10:05:46.083Z,3.00
2018-12-18T10:08:15.225Z,3.80
2018-12-18T10:10:44.399Z,3.60
2018-12-18T10:13:13.524Z,3.00
2018-12-18T10:15:42.667Z,3.90
2018-12-18T10:18:11.714Z,3.13
2018-12-18T10:20:40.749Z,3.63
2018-12-18T10:23:09.907Z,4.10
2018-12-18T10:25:39.044Z,4.13
2018-12-18T10:28:08.101Z,4.47
2018-12-18T10:30:37.182Z,4.23
2018-12-18T10:33:07.378Z,4.37
2018-12-18T10:35:36.813Z,4.40
2018-12-18T10:38:06.239Z,3.43
2018-12-18T10:40:35.341Z,3.73
2018-12-18T10:43:05.251Z,4.27
2018-12-18T10:45:35.423Z,4.00
2018-12-18T10:48:04.536Z,3.77
2018-12-18T10:50:33.785Z,4.07
2018-12-18T10:53:03.459Z,3.87
2018-12-18T10:55:32.597Z,4.20
2018-12-18T10:58:01.665Z,3.43
2018-12-18T11:00:36.033Z,3.30
2018-12-18T11:03:05.229Z,2.90
2018-12-18T11:05:34.308Z,2.53
2018-12-18T11:08:04.824Z,2.87
2018-12-18T11:10:33.896Z,2.50
2018-12-18T11:13:20.465Z,3.40
2018-12-18T11:15:49.499Z,5.70
2018-12-18T11:18:18.749Z,2.47
2018-12-18T11:20:47.850Z,2.80
2018-12-18T11:23:16.945Z,2.60
2018-12-18T11:25:46.100Z,2.67
2018-12-18T11:28:15.169Z,3.17
2018-12-18T11:30:44.253Z,2.80
2018-12-18T11:33:13.301Z,3.13
2018-12-18T11:35:42.437Z,2.57
2018-12-18T11:38:11.537Z,2.90
2018-12-18T11:40:40.678Z,2.80
2018-12-18T11:43:09.792Z,2.43
2018-12-18T11:45:38.879Z,2.17
2018-12-18T11:48:07.957Z,2.90
2018-12-18T11:50:37.079Z,2.63
2018-12-18T11:53:06.142Z,2.87
2018-12-18T11:55:35.291Z,2.53
2018-12-18T11:58:05.042Z,3.00
2018-12-18T12:00:34.167Z,2.50
2018-12-18T12:03:03.879Z,3.00
2018-12-18T12:05:32.982Z,2.60
2018-12-18T12:08:02.163Z,2.73
2018-12-18T12:10:31.249Z,2.60
2018-12-18T12:13:00.424Z,2.90
2018-12-18T12:15:29.650Z,2.20
2018-12-18T12:17:58.988Z,2.70
2018-12-18T12:20:28.108Z,3.03
2018-12-18T12:22:57.168Z,2.90
2018-12-18T12:25:26.260Z,3.93
2018-12-18T12:28:00.461Z,5.97
2018-12-18T12:30:29.580Z,9.80
2018-12-18T12:32:58.671Z,8.07
2018-12-18T12:35:28.133Z,7.37
2018-12-18T12:37:57.164Z,4.30
2018-12-18T12:40:26.246Z,3.93
2018-12-18T12:42:55.374Z,4.20
2018-12-18T12:45:24.495Z,3.90
2018-12-18T12:47:56.326Z,3.73
2018-12-18T12:50:25.447Z,3.20
2018-12-18T12:52:54.531Z,3.57
2018-12-18T12:55:23.705Z,3.53
2018-12-18T12:57:52.752Z,3.20
2018-12-18T13:00:21.896Z,2.87
2018-12-18T13:02:51.354Z,3.70
2018-12-18T13:05:20.468Z,3.50
2018-12-18T13:07:49.521Z,2.97
2018-12-18T13:10:18.629Z,4.00
2018-12-18T13:12:47.695Z,3.10
2018-12-18T13:15:16.896Z,2.77
2018-12-18T13:17:46.026Z,4.30
2018-12-18T13:20:15.129Z,4.60
2018-12-18T13:22:44.211Z,4.03
2018-12-18T13:25:13.323Z,3.93
2018-12-18T13:27:42.394Z,4.17
2018-12-18T13:30:11.516Z,3.97
2018-12-18T13:32:41.068Z,3.37
2018-12-18T13:35:10.148Z,3.37
2018-12-18T13:37:39.197Z,3.80
2018-12-18T13:40:08.337Z,3.43
2018-12-18T13:42:37.436Z,3.77
2018-12-18T13:45:07.432Z,4.13
2018-12-18T13:47:36.558Z,4.07
2018-12-18T13:50:06.369Z,5.03
2018-12-18T13:52:35.446Z,3.90
2018-12-18T13:55:05.501Z,4.50
2018-12-18T13:57:34.562Z,3.83
2018-12-18T14:00:03.864Z,4.77
2018-12-18T14:02:33.012Z,5.10
2018-12-18T14:05:02.832Z,5.60
2018-12-18T14:07:31.991Z,5.93
2018-12-18T14:10:01.081Z,6.70
2018-12-18T14:12:30.171Z,7.47
2018-12-18T14:14:59.297Z,7.80
2018-12-18T14:17:28.442Z,6.80
2018-12-18T14:19:57.496Z,6.37
2018-12-18T14:22:26.599Z,7.50
2018-12-18T14:24:55.658Z,7.63
2018-12-18T14:27:24.718Z,7.60
2018-12-18T14:29:53.807Z,8.83
2018-12-18T14:32:22.956Z,10.40
2018-12-18T14:34:52.048Z,9.63
2018-12-18T14:37:21.159Z,8.70
2018-12-18T14:39:50.244Z,10.97
2018-12-18T14:42:19.360Z,11.17
2018-12-18T14:44:49.086Z,9.20
2018-12-18T14:47:18.243Z,11.73
2018-12-18T14:49:47.354Z,11.90
2018-12-18T14:52:16.482Z,12.63
2018-12-18T14:54:45.575Z,11.13
2018-12-18T14:57:14.633Z,9.17
2018-12-18T14:59:43.908Z,9.60
2018-12-18T15:02:12.994Z,7.23
2018-12-18T15:04:42.074Z,8.00
2018-12-18T15:07:11.235Z,8.17
2018-12-18T15:09:40.328Z,8.27
2018-12-18T15:12:09.416Z,8.83
2018-12-18T15:14:38.554Z,9.43
2018-12-18T15:17:07.621Z,8.50
2018-12-18T15:19:36.746Z,8.60
2018-12-18T15:22:06.121Z,8.70
2018-12-18T15:24:35.177Z,11.37
2018-12-18T15:27:04.297Z,12.60
2018-12-18T15:29:33.406Z,12.70
2018-12-18T15:32:02.583Z,10.87
2018-12-18T15:34:31.699Z,10.77
2018-12-18T15:37:00.848Z,9.33
2018-12-18T15:39:29.903Z,9.43
2018-12-18T15:41:58.972Z,9.17
2018-12-18T15:44:28.596Z,8.50
2018-12-18T15:46:57.709Z,9.17
2018-12-18T15:49:26.802Z,8.03
2018-12-18T15:51:55.932Z,7.70
2018-12-18T15:54:25.064Z,9.10
2018-12-18T15:56:54.149Z,9.67
2018-12-18T15:59:23.280Z,9.33
2018-12-18T16:01:52.337Z,8.47
2018-12-18T16:04:21.428Z,8.63
2018-12-18T16:06:50.581Z,9.03
2018-12-18T16:09:20.000Z,7.83
2018-12-18T16:11:49.132Z,23.07
2018-12-18T16:14:18.258Z,24.50
2018-12-18T16:16:47.379Z,16.77
2018-12-18T16:19:16.609Z,8.70
2018-12-18T16:21:46.043Z,10.10
2018-12-18T16:24:15.377Z,12.43
2018-12-18T16:26:44.455Z,9.87
2018-12-18T16:29:13.605Z,19.37
2018-12-18T16:31:42.689Z,12.87
2018-12-18T16:34:11.772Z,10.03
2018-12-18T16:36:40.878Z,11.87
2018-12-18T16:39:10.026Z,15.27
2018-12-18T16:41:39.137Z,7.30
2018-12-18T16:44:08.284Z,8.37
2018-12-18T16:46:37.381Z,12.17
2018-12-18T16:49:06.489Z,7.60
2018-12-18T16:51:36.036Z,8.40
2018-12-18T16:54:06.526Z,8.10
2018-12-18T16:56:35.921Z,7.83
2018-12-18T16:59:05.272Z,7.63
2018-12-18T17:01:34.421Z,7.37
2018-12-18T17:04:03.581Z,6.60
2018-12-18T17:06:32.669Z,6.83
2018-12-18T17:09:01.778Z,7.30
2018-12-18T17:11:31.015Z,9.17
2018-12-18T17:14:00.100Z,10.60
2018-12-18T17:16:29.239Z,10.17
2018-12-18T17:18:58.405Z,9.27
2018-12-18T17:21:27.513Z,9.17
2018-12-18T17:23:56.634Z,9.07
2018-12-18T17:26:25.824Z,9.47
2018-12-18T17:28:54.889Z,10.00
2018-12-18T17:31:23.986Z,7.87
2018-12-18T17:33:53.139Z,6.90
2018-12-18T17:36:22.241Z,8.30
2018-12-18T17:38:51.279Z,7.30
2018-12-18T17:41:20.436Z,8.50
2018-12-18T17:43:50.223Z,7.03
2018-12-18T17:46:19.321Z,8.37
2018-12-18T17:48:48.464Z,7.93
2018-12-18T17:51:17.570Z,7.33
2018-12-18T17:53:46.712Z,8.37
2018-12-18T17:56:15.865Z,7.93
2018-12-18T17:58:44.971Z,6.53
2018-12-18T18:01:14.066Z,7.30
2018-12-18T18:03:43.582Z,5.87
2018-12-18T18:06:12.781Z,5.53
2018-12-18T18:08:41.867Z,6.67
2018-12-18T18:11:11.013Z,6.20
2018-12-18T18:13:40.123Z,5.83
2018-12-18T18:16:09.223Z,7.13
2018-12-18T18:18:38.316Z,6.50
2018-12-18T18:21:07.548Z,6.43
2018-12-18T18:23:36.632Z,6.67
2018-12-18T18:26:06.370Z,6.80
2018-12-18T18:28:35.415Z,6.20
2018-12-18T18:31:04.502Z,5.93
2018-12-18T18:33:33.582Z,5.67
2018-12-18T18:36:02.788Z,6.27
2018-12-18T18:38:31.944Z,6.27
2018-12-18T18:41:01.198Z,6.90
2018-12-18T18:43:30.292Z,5.93
2018-12-18T18:45:59.381Z,6.50
2018-12-18T18:48:28.501Z,6.03
2018-12-18T18:50:57.588Z,5.27
2018-12-18T18:53:26.660Z,6.40
2018-12-18T18:55:55.836Z,6.10
2018-12-18T18:58:24.933Z,6.27
2018-12-18T19:00:54.019Z,5.93
2018-12-18T19:03:23.469Z,9.63
2018-12-18T19:05:52.577Z,7.10
2018-12-18T19:08:21.681Z,6.93
2018-12-18T19:10:50.795Z,7.77
2018-12-18T19:13:19.926Z,6.10
2018-12-18T19:15:49.081Z,7.67
2018-12-18T19:18:18.343Z,11.20
2018-12-18T19:20:47.509Z,12.67
2018-12-18T19:23:16.651Z,12.97
2018-12-18T19:25:45.757Z,7.73
2018-12-18T19:28:14.951Z,9.87
2018-12-18T19:30:44.036Z,16.73
2018-12-18T19:33:13.148Z,13.50
2018-12-18T19:35:42.227Z,32.50
2018-12-18T19:38:11.299Z,7.03
2018-12-18T19:40:40.488Z,7.13
2018-12-18T19:43:09.589Z,8.37
2018-12-18T19:45:38.741Z,7.37
2018-12-18T19:48:07.885Z,7.13
2018-12-18T19:50:36.947Z,7.47
2018-12-18T19:53:06.061Z,7.73
2018-12-18T19:55:35.208Z,8.47
2018-12-18T19:58:04.383Z,7.60
2018-12-18T20:00:33.554Z,9.93
2018-12-18T20:03:02.755Z,7.23
2018-12-18T20:05:31.986Z,8.10
2018-12-18T20:08:01.120Z,8.17
2018-12-18T20:10:30.259Z,8.07
2018-12-18T20:13:03.500Z,8.10
2018-12-18T20:15:32.682Z,7.80
2018-12-18T20:18:02.013Z,7.67
2018-12-18T20:20:31.118Z,7.33
2018-12-18T20:23:00.275Z,7.90
2018-12-18T20:25:29.368Z,6.70
2018-12-18T20:27:58.465Z,8.40
2018-12-18T20:30:27.670Z,8.80
2018-12-18T20:32:56.787Z,8.17
2018-12-18T20:35:25.868Z,8.37
2018-12-18T20:37:55.019Z,9.33
2018-12-18T20:40:24.163Z,10.40
2018-12-18T20:42:53.278Z,9.20
2018-12-18T20:45:22.424Z,11.07
2018-12-18T20:47:51.512Z,11.37
2018-12-18T20:50:20.602Z,11.00
2018-12-18T20:52:49.740Z,10.53
2018-12-18T20:55:18.862Z,7.60
2018-12-18T20:57:47.996Z,9.80
2018-12-18T21:00:17.325Z,13.10
2018-12-18T21:02:46.486Z,11.03
2018-12-18T21:05:15.610Z,9.83
2018-12-18T21:07:44.895Z,10.57
2018-12-18T21:10:13.989Z,9.27
2018-12-18T21:12:43.032Z,9.37
2018-12-18T21:15:12.166Z,9.13
2018-12-18T21:17:41.269Z,8.80
2018-12-18T21:20:10.529Z,9.07
2018-12-18T21:22:39.723Z,9.37
2018-12-18T21:25:09.077Z,10.10
2018-12-18T21:27:38.180Z,9.57
2018-12-18T21:30:08.453Z,11.73
2018-12-18T21:32:37.513Z,10.50
2018-12-18T21:35:06.627Z,10.63
2018-12-18T21:37:35.780Z,10.60
2018-12-18T21:40:05.507Z,11.37
2018-12-18T21:42:34.566Z,10.83
2018-12-18T21:45:03.859Z,10.33
2018-12-18T21:47:32.955Z,10.07
2018-12-18T21:50:02.056Z,11.33
2018-12-18T21:52:31.634Z,10.50
2018-12-18T21:55:00.702Z,10.63
2018-12-18T21:57:29.753Z,10.13
2018-12-18T21:59:59.202Z,10.97
2018-12-18T22:02:28.249Z,12.03
2018-12-18T22:04:57.299Z,10.30
2018-12-18T22:07:26.429Z,10.80
2018-12-18T22:09:55.560Z,11.33
2018-12-18T22:12:24.735Z,11.17
2018-12-18T22:14:54.078Z,10.63
2018-12-18T22:17:23.177Z,10.33
2018-12-18T22:19:52.198Z,10.90
2018-12-18T22:22:21.332Z,10.70
2018-12-18T22:24:50.410Z,10.53
2018-12-18T22:27:19.519Z,10.97
2018-12-18T22:29:48.663Z,9.13
2018-12-18T22:32:17.736Z,10.27
2018-12-18T22:34:46.833Z,11.17
2018-12-18T22:37:15.964Z,11.17
2018-12-18T22:39:45.049Z,10.40
2018-12-18T22:42:14.164Z,10.33
2018-12-18T22:44:43.304Z,10.53
2018-12-18T22:47:12.376Z,9.83
2018-12-18T22:49:41.423Z,9.97
2018-12-18T22:52:10.567Z,10.00
2018-12-18T22:54:39.677Z,10.20
2018-12-18T22:57:08.747Z,10.67
2018-12-18T22:59:37.853Z,9.77
2018-12-18T23:02:11.943Z,10.53
2018-12-18T23:04:41.739Z,10.57
2018-12-18T23:07:10.854Z,10.23
2018-12-18T23:09:39.947Z,10.10
2018-12-18T23:12:09.039Z,9.87
2018-12-18T23:14:38.161Z,10.40
2018-12-18T23:17:07.258Z,9.93
2018-12-18T23:19:36.396Z,10.07
2018-12-18T23:22:05.636Z,10.23
2018-12-18T23:24:34.726Z,10.10
2018-12-18T23:27:04.439Z,10.83
2018-12-18T23:29:33.527Z,9.97
2018-12-18T23:32:02.647Z,10.13
2018-12-18T23:34:33.153Z,11.27
2018-12-18T23:37:02.527Z,10.00
2018-12-18T23:39:31.615Z,11.10
2018-12-18T23:42:01.163Z,12.70
2018-12-18T23:44:30.256Z,11.13
2018-12-18T23:46:59.329Z,11.03
2018-12-18T23:49:28.755Z,9.33
2018-12-18T23:51:57.887Z,11.27
2018-12-18T23:54:26.985Z,11.80
2018-12-18T23:56:56.163Z,11.60
2018-12-18T23:59:25.275Z,11.03
